createdAt,value
2018-08-20T00:01:28.313Z,98.20
2018-08-20T00:03:59.839Z,98.30
2018-08-20T00:06:30.355Z,98.30
2018-08-20T00:08:59.113Z,98.30
2018-08-20T00:11:27.945Z,98.40
2018-08-20T00:13:56.789Z,98.50
2018-08-20T00:16:25.517Z,98.50
2018-08-20T00:18:53.997Z,98.60
2018-08-20T00:21:22.673Z,98.70
2018-08-20T00:23:51.603Z,98.70
2018-08-20T00:26:20.515Z,98.60
2018-08-20T00:28:49.045Z,98.70
2018-08-20T00:31:17.572Z,98.70
2018-08-20T00:33:46.253Z,98.80
2018-08-20T00:36:15.389Z,98.80
2018-08-20T00:38:43.923Z,98.90
2018-08-20T00:41:12.683Z,99.00
2018-08-20T00:43:41.220Z,98.80
2018-08-20T00:46:09.865Z,98.80
2018-08-20T00:48:38.414Z,98.90
2018-08-20T00:51:07.317Z,99.00
2018-08-20T00:53:36.657Z,98.90
2018-08-20T00:56:05.255Z,98.90
2018-08-20T00:58:33.760Z,98.80
2018-08-20T01:01:02.718Z,98.90
2018-08-20T01:03:32.112Z,99.10
2018-08-20T01:06:00.657Z,99.20
2018-08-20T01:08:29.248Z,99.50
2018-08-20T01:10:58.226Z,99.30
2018-08-20T01:13:26.955Z,99.20
2018-08-20T01:15:56.567Z,99.20
2018-08-20T01:18:25.127Z,99.20
2018-08-20T01:20:54.020Z,99.20
2018-08-20T01:23:22.759Z,99.20
2018-08-20T01:25:52.338Z,99.30
2018-08-20T01:28:20.835Z,99.30
2018-08-20T01:30:49.345Z,99.30
2018-08-20T01:33:17.863Z,99.50
2018-08-20T01:35:46.486Z,99.50
2018-08-20T01:38:15.075Z,99.50
2018-08-20T01:40:44.117Z,99.50
2018-08-20T01:43:13.399Z,99.40
2018-08-20T01:45:41.961Z,99.40
2018-08-20T01:48:10.429Z,99.50
2018-08-20T01:50:39.373Z,99.70
2018-08-20T01:53:07.850Z,99.80
2018-08-20T01:55:36.465Z,99.80
2018-08-20T01:58:05.479Z,99.70
2018-08-20T02:00:34.710Z,99.80
2018-08-20T02:03:03.760Z,99.80
2018-08-20T02:05:32.636Z,99.90
2018-08-20T02:08:01.685Z,99.70
2018-08-20T02:10:30.517Z,99.70
2018-08-20T02:12:58.992Z,99.80
2018-08-20T02:15:27.504Z,99.80
2018-08-20T02:17:56.209Z,99.80
2018-08-20T02:20:24.668Z,99.70
2018-08-20T02:22:53.187Z,99.90
2018-08-20T02:25:21.785Z,99.90
2018-08-20T02:27:50.288Z,99.90
2018-08-20T02:30:18.861Z,99.90
2018-08-20T02:32:48.145Z,99.90
2018-08-20T02:35:16.652Z,99.90
2018-08-20T02:37:45.992Z,99.90
2018-08-20T02:40:15.476Z,99.90
2018-08-20T02:42:44.042Z,99.90
2018-08-20T02:45:16.432Z,99.90
2018-08-20T02:47:45.218Z,99.90
2018-08-20T02:50:14.169Z,99.90
2018-08-20T02:52:43.718Z,99.90
2018-08-20T02:55:12.169Z,99.90
2018-08-20T02:57:40.919Z,99.90
2018-08-20T03:00:13.502Z,99.90
2018-08-20T03:02:42.013Z,99.90
2018-08-20T03:05:11.958Z,99.90
2018-08-20T03:07:40.822Z,99.90
2018-08-20T03:10:11.253Z,99.90
2018-08-20T03:12:39.943Z,99.90
2018-08-20T03:15:09.853Z,99.90
2018-08-20T03:17:38.325Z,99.90
2018-08-20T03:20:07.102Z,99.90
2018-08-20T03:22:35.635Z,99.90
2018-08-20T03:25:04.693Z,99.90
2018-08-20T03:27:33.145Z,99.90
2018-08-20T03:30:01.590Z,99.90
2018-08-20T03:32:30.107Z,99.90
2018-08-20T03:34:58.693Z,99.90
2018-08-20T03:37:27.251Z,99.90
2018-08-20T03:39:55.746Z,99.90
2018-08-20T03:42:24.261Z,99.90
2018-08-20T03:44:53.062Z,99.90
2018-08-20T03:47:21.892Z,99.90
2018-08-20T03:49:50.731Z,99.90
2018-08-20T03:52:19.208Z,99.90
2018-08-20T03:54:47.870Z,99.90
2018-08-20T03:57:16.545Z,99.90
2018-08-20T03:59:45.251Z,99.90
2018-08-20T04:02:13.767Z,99.90
2018-08-20T04:04:42.438Z,99.90
2018-08-20T04:07:11.006Z,99.90
2018-08-20T04:09:40.105Z,99.90
2018-08-20T04:12:08.569Z,99.90
2018-08-20T04:14:37.201Z,99.90
2018-08-20T04:17:05.729Z,99.90
2018-08-20T04:19:34.281Z,99.90
2018-08-20T04:22:03.174Z,99.90
2018-08-20T04:24:31.730Z,99.90
2018-08-20T04:27:00.332Z,99.90
2018-08-20T04:29:28.958Z,99.90
2018-08-20T04:31:57.493Z,99.90
2018-08-20T04:34:26.013Z,99.90
2018-08-20T04:36:54.551Z,99.90
2018-08-20T04:39:23.062Z,99.90
2018-08-20T04:41:51.696Z,99.90
2018-08-20T04:44:20.272Z,99.90
2018-08-20T04:46:48.749Z,99.90
2018-08-20T04:49:17.429Z,99.90
2018-08-20T04:51:45.951Z,99.90
2018-08-20T04:54:14.485Z,99.90
2018-08-20T04:56:43.106Z,99.90
2018-08-20T04:59:12.033Z,99.90
2018-08-20T05:01:41.366Z,99.90
2018-08-20T05:04:09.877Z,99.90
2018-08-20T05:06:38.429Z,99.90
2018-08-20T05:09:07.528Z,99.90
2018-08-20T05:11:36.178Z,99.90
2018-08-20T05:14:04.727Z,99.90
2018-08-20T05:16:33.262Z,99.90
2018-08-20T05:19:01.963Z,99.90
2018-08-20T05:21:30.359Z,99.90
2018-08-20T05:23:58.928Z,99.90
2018-08-20T05:26:27.584Z,99.90
2018-08-20T05:28:56.115Z,99.90
2018-08-20T05:31:25.876Z,99.90
2018-08-20T05:33:54.530Z,99.90
2018-08-20T05:36:23.090Z,99.90
2018-08-20T05:38:51.780Z,99.90
2018-08-20T05:41:20.311Z,99.80
2018-08-20T05:43:48.917Z,99.80
2018-08-20T05:46:17.428Z,99.80
2018-08-20T05:48:45.965Z,99.70
2018-08-20T05:51:14.514Z,99.70
2018-08-20T05:53:43.361Z,99.80
2018-08-20T05:56:11.946Z,99.90
2018-08-20T05:58:40.490Z,99.90
2018-08-20T06:01:08.986Z,99.90
2018-08-20T06:03:37.579Z,99.90
2018-08-20T06:06:06.536Z,99.90
2018-08-20T06:08:35.160Z,99.90
2018-08-20T06:11:03.647Z,99.90
2018-08-20T06:13:32.207Z,99.90
2018-08-20T06:16:00.672Z,99.90
2018-08-20T06:18:29.181Z,99.80
2018-08-20T06:20:57.804Z,99.90
2018-08-20T06:23:26.312Z,99.90
2018-08-20T06:25:54.904Z,99.90
2018-08-20T06:28:24.140Z,99.90
2018-08-20T06:30:52.706Z,99.90
2018-08-20T06:33:21.272Z,99.90
2018-08-20T06:35:49.893Z,99.90
2018-08-20T06:38:18.398Z,99.90
2018-08-20T06:40:46.887Z,99.90
2018-08-20T06:43:15.400Z,99.90
2018-08-20T06:45:44.555Z,99.90
2018-08-20T06:48:13.007Z,99.90
2018-08-20T06:50:41.565Z,99.80
2018-08-20T06:53:10.109Z,99.90
2018-08-20T06:55:38.723Z,99.90
2018-08-20T06:58:07.270Z,99.90
2018-08-20T07:00:35.903Z,99.90
2018-08-20T07:03:04.497Z,99.90
2018-08-20T07:05:33.020Z,99.80
2018-08-20T07:08:01.570Z,99.80
2018-08-20T07:11:00.896Z,99.80
2018-08-20T07:13:34.109Z,99.60
2018-08-20T07:16:02.753Z,99.60
2018-08-20T07:18:31.583Z,99.40
2018-08-20T07:21:00.139Z,99.90
2018-08-20T07:23:29.954Z,99.90
2018-08-20T07:25:58.724Z,99.90
2018-08-20T07:28:27.306Z,99.30
2018-08-20T07:30:55.792Z,99.10
2018-08-20T07:33:24.331Z,98.50
2018-08-20T07:35:52.899Z,98.40
2018-08-20T07:38:21.534Z,98.40
2018-08-20T07:40:50.138Z,98.40
2018-08-20T07:43:18.699Z,98.50
2018-08-20T07:45:47.287Z,98.40
2018-08-20T07:48:15.882Z,98.40
2018-08-20T07:50:44.946Z,98.40
2018-08-20T07:53:13.995Z,98.40
2018-08-20T07:55:42.538Z,98.20
2018-08-20T07:58:11.222Z,98.10
2018-08-20T08:00:39.944Z,98.20
2018-08-20T08:03:08.508Z,98.20
2018-08-20T08:05:37.115Z,98.20
2018-08-20T08:08:05.720Z,98.00
2018-08-20T08:10:34.269Z,98.20
2018-08-20T08:13:02.922Z,98.10
2018-08-20T08:15:31.539Z,98.00
2018-08-20T08:18:00.175Z,98.00
2018-08-20T08:20:28.867Z,97.80
2018-08-20T08:22:57.524Z,97.70
2018-08-20T08:25:26.265Z,97.60
2018-08-20T08:27:54.884Z,97.60
2018-08-20T08:30:23.583Z,97.60
2018-08-20T08:32:52.182Z,97.70
2018-08-20T08:35:20.808Z,97.70
2018-08-20T08:37:50.083Z,97.70
2018-08-20T08:40:18.653Z,98.00
2018-08-20T08:42:47.208Z,97.90
2018-08-20T08:45:18.130Z,97.50
2018-08-20T08:47:47.526Z,97.20
2018-08-20T08:50:16.948Z,97.30
2018-08-20T08:52:45.828Z,97.40
2018-08-20T08:55:14.336Z,98.60
2018-08-20T08:57:42.873Z,97.60
2018-08-20T09:00:14.606Z,97.30
2018-08-20T09:02:43.385Z,97.50
2018-08-20T09:05:12.452Z,97.20
2018-08-20T09:07:41.786Z,97.20
2018-08-20T09:10:12.076Z,96.80
2018-08-20T09:12:40.796Z,96.40
2018-08-20T09:15:12.878Z,96.30
2018-08-20T09:17:41.632Z,96.30
2018-08-20T09:20:12.086Z,96.70
2018-08-20T09:22:40.711Z,96.80
2018-08-20T09:25:10.697Z,97.00
2018-08-20T09:27:39.914Z,96.80
2018-08-20T09:30:17.210Z,96.60
2018-08-20T09:32:46.392Z,96.30
2018-08-20T09:35:15.171Z,96.70
2018-08-20T09:37:43.972Z,96.70
2018-08-20T09:40:12.788Z,96.80
2018-08-20T09:42:41.919Z,96.50
2018-08-20T09:45:10.709Z,96.40
2018-08-20T09:47:40.385Z,95.90
2018-08-20T09:50:10.946Z,95.50
2018-08-20T09:52:39.580Z,95.40
2018-08-20T09:55:08.888Z,95.30
2018-08-20T09:57:37.426Z,95.30
2018-08-20T10:00:14.917Z,95.00
2018-08-20T10:02:43.494Z,94.80
2018-08-20T10:05:12.094Z,94.60
2018-08-20T10:07:45.490Z,94.30
2018-08-20T10:10:14.574Z,94.10
2018-08-20T10:12:43.745Z,93.60
2018-08-20T10:15:12.812Z,93.60
2018-08-20T10:17:41.815Z,93.60
2018-08-20T10:20:12.184Z,93.00
2018-08-20T10:22:40.867Z,93.30
2018-08-20T10:25:09.677Z,93.30
2018-08-20T10:27:38.359Z,93.30
2018-08-20T10:30:08.401Z,93.10
2018-08-20T10:32:37.123Z,93.00
2018-08-20T10:35:06.048Z,93.20
2018-08-20T10:37:34.576Z,93.20
2018-08-20T10:40:03.221Z,92.90
2018-08-20T10:42:32.008Z,92.80
2018-08-20T10:45:05.795Z,92.90
2018-08-20T10:47:34.532Z,92.60
2018-08-20T10:50:03.496Z,92.50
2018-08-20T10:52:32.108Z,93.10
2018-08-20T10:55:00.722Z,95.80
2018-08-20T10:57:29.232Z,96.70
2018-08-20T10:59:57.720Z,96.00
2018-08-20T11:02:26.278Z,98.60
2018-08-20T11:04:55.374Z,94.00
2018-08-20T11:07:24.413Z,92.60
2018-08-20T11:09:52.916Z,95.40
2018-08-20T11:12:28.382Z,92.10
2018-08-20T11:14:56.890Z,83.10
2018-08-20T11:17:25.568Z,91.30
2018-08-20T11:19:54.206Z,91.20
2018-08-20T11:22:22.810Z,92.60
2018-08-20T11:24:51.384Z,86.00
2018-08-20T11:27:19.965Z,90.40
2018-08-20T11:29:48.608Z,90.30
2018-08-20T11:32:17.229Z,83.50
2018-08-20T11:34:45.802Z,80.40
2018-08-20T11:37:14.381Z,80.70
2018-08-20T11:39:43.019Z,80.60
2018-08-20T11:42:11.646Z,75.10
2018-08-20T11:44:40.562Z,77.10
2018-08-20T11:47:09.178Z,65.30
2018-08-20T11:49:37.785Z,67.80
2018-08-20T11:52:06.307Z,67.10
2018-08-20T11:54:34.890Z,70.30
2018-08-20T11:57:03.477Z,75.20
2018-08-20T11:59:31.980Z,74.10
2018-08-20T12:02:01.740Z,71.20
2018-08-20T12:04:30.364Z,65.90
2018-08-20T12:06:58.991Z,66.70
2018-08-20T12:09:27.541Z,57.30
2018-08-20T12:11:56.153Z,58.90
2018-08-20T12:14:25.373Z,63.80
2018-08-20T12:16:53.983Z,63.40
2018-08-20T12:19:22.595Z,60.20
2018-08-20T12:21:52.132Z,52.20
2018-08-20T12:24:21.579Z,51.00
2018-08-20T12:26:50.347Z,60.40
2018-08-20T12:29:19.004Z,59.40
2018-08-20T12:31:47.787Z,56.30
2018-08-20T12:34:16.722Z,56.70
2018-08-20T12:36:45.427Z,58.50
2018-08-20T12:39:15.043Z,57.90
2018-08-20T12:41:43.900Z,51.10
2018-08-20T12:44:12.580Z,53.60
2018-08-20T12:46:41.742Z,56.00
2018-08-20T12:49:10.358Z,55.10
2018-08-20T12:51:43.192Z,54.60
2018-08-20T12:54:11.848Z,53.10
2018-08-20T12:56:41.245Z,52.30
2018-08-20T12:59:10.428Z,51.90
2018-08-20T13:01:39.215Z,51.80
2018-08-20T13:04:07.948Z,52.00
2018-08-20T13:06:36.618Z,49.00
2018-08-20T13:09:07.415Z,49.20
2018-08-20T13:11:36.160Z,49.40
2018-08-20T13:14:05.464Z,48.20
2018-08-20T13:16:34.054Z,48.60
2018-08-20T13:19:02.591Z,48.80
2018-08-20T13:21:31.286Z,47.90
2018-08-20T13:23:59.902Z,48.10
2018-08-20T13:26:28.690Z,47.90
2018-08-20T13:28:57.244Z,46.60
2018-08-20T13:31:25.805Z,46.30
2018-08-20T13:33:54.405Z,46.40
2018-08-20T13:36:23.127Z,45.80
2018-08-20T13:38:52.234Z,45.00
2018-08-20T13:41:20.781Z,45.00
2018-08-20T13:43:49.584Z,44.80
2018-08-20T13:46:22.574Z,46.20
2018-08-20T13:48:51.865Z,46.90
2018-08-20T13:51:20.601Z,47.10
2018-08-20T13:53:54.134Z,46.90
2018-08-20T13:56:22.815Z,47.10
2018-08-20T13:58:51.506Z,46.10
2018-08-20T14:01:20.533Z,45.30
2018-08-20T14:03:49.245Z,44.60
2018-08-20T14:06:17.954Z,45.20
2018-08-20T14:08:47.461Z,45.80
2018-08-20T14:11:16.204Z,45.40
2018-08-20T14:13:44.798Z,44.40
2018-08-20T14:16:13.423Z,44.50
2018-08-20T14:18:41.992Z,44.40
2018-08-20T14:21:13.864Z,44.80
2018-08-20T14:23:44.178Z,45.30
2018-08-20T14:26:13.368Z,45.90
2018-08-20T14:28:43.270Z,44.70
2018-08-20T14:31:11.847Z,44.40
2018-08-20T14:33:40.548Z,43.70
2018-08-20T14:36:09.544Z,43.70
2018-08-20T14:38:38.139Z,44.40
2018-08-20T14:41:06.822Z,45.30
2018-08-20T14:43:35.341Z,46.20
2018-08-20T14:46:10.509Z,46.50
2018-08-20T14:48:39.050Z,46.10
2018-08-20T14:51:07.851Z,46.00
2018-08-20T14:53:36.503Z,44.80
2018-08-20T14:56:05.724Z,45.20
2018-08-20T14:58:35.369Z,44.30
2018-08-20T15:01:04.009Z,44.90
2018-08-20T15:03:32.682Z,45.50
2018-08-20T15:06:01.261Z,44.70
2018-08-20T15:08:29.779Z,45.90
2018-08-20T15:10:58.544Z,46.40
2018-08-20T15:13:27.169Z,47.00
2018-08-20T15:15:55.719Z,47.10
2018-08-20T15:18:24.340Z,47.30
2018-08-20T15:20:52.911Z,47.40
2018-08-20T15:23:21.512Z,47.70
2018-08-20T15:25:50.112Z,48.00
2018-08-20T15:28:18.792Z,48.30
2018-08-20T15:30:48.160Z,48.70
2018-08-20T15:33:17.203Z,49.50
2018-08-20T15:35:45.805Z,49.60
2018-08-20T15:38:14.262Z,50.20
2018-08-20T15:40:42.834Z,50.40
2018-08-20T15:43:11.434Z,50.90
2018-08-20T15:45:40.015Z,51.00
2018-08-20T15:48:08.676Z,51.00
2018-08-20T15:50:37.258Z,51.20
2018-08-20T15:53:05.852Z,51.60
2018-08-20T15:55:34.347Z,51.80
2018-08-20T15:58:02.787Z,52.50
2018-08-20T16:00:32.058Z,53.00
2018-08-20T16:03:00.539Z,53.20
2018-08-20T16:05:29.051Z,53.80
2018-08-20T16:07:57.587Z,53.80
2018-08-20T16:10:26.341Z,54.00
2018-08-20T16:12:54.974Z,54.60
2018-08-20T16:15:23.516Z,54.40
2018-08-20T16:17:52.030Z,55.10
2018-08-20T16:20:20.604Z,55.50
2018-08-20T16:22:49.164Z,55.40
2018-08-20T16:25:17.775Z,55.90
2018-08-20T16:27:46.298Z,56.10
2018-08-20T16:30:14.825Z,56.50
2018-08-20T16:32:43.554Z,56.40
2018-08-20T16:35:12.983Z,56.80
2018-08-20T16:37:43.279Z,57.20
2018-08-20T16:40:12.559Z,57.70
2018-08-20T16:42:41.107Z,57.80
2018-08-20T16:45:11.349Z,57.60
2018-08-20T16:47:40.079Z,57.50
2018-08-20T16:50:11.521Z,58.20
2018-08-20T16:52:40.446Z,58.80
2018-08-20T16:55:09.797Z,59.00
2018-08-20T16:57:38.468Z,59.20
2018-08-20T17:00:08.848Z,59.50
2018-08-20T17:02:39.863Z,59.50
2018-08-20T17:05:09.497Z,59.70
2018-08-20T17:07:38.965Z,59.50
2018-08-20T17:10:08.993Z,59.80
2018-08-20T17:12:37.453Z,60.00
2018-08-20T17:15:11.337Z,59.90
2018-08-20T17:17:40.358Z,59.90
2018-08-20T17:20:09.960Z,60.30
2018-08-20T17:22:38.582Z,60.90
2018-08-20T17:25:08.021Z,61.30
2018-08-20T17:27:36.641Z,61.80
2018-08-20T17:30:06.825Z,62.00
2018-08-20T17:32:36.099Z,62.20
2018-08-20T17:35:06.999Z,62.40
2018-08-20T17:37:36.324Z,62.60
2018-08-20T17:40:08.645Z,62.50
2018-08-20T17:42:37.499Z,62.70
2018-08-20T17:45:07.723Z,62.60
2018-08-20T17:47:38.850Z,62.70
2018-08-20T17:50:17.376Z,63.10
2018-08-20T17:52:45.966Z,63.10
2018-08-20T17:55:14.628Z,63.70
2018-08-20T17:57:43.727Z,63.90
2018-08-20T18:00:32.579Z,64.20
2018-08-20T18:03:02.098Z,64.40
2018-08-20T18:05:30.724Z,64.70
2018-08-20T18:07:59.434Z,64.80
2018-08-20T18:10:28.051Z,64.70
2018-08-20T18:12:56.828Z,65.80
2018-08-20T18:15:25.589Z,67.80
2018-08-20T18:17:54.318Z,67.90
2018-08-20T18:20:23.258Z,68.20
2018-08-20T18:22:52.109Z,68.10
2018-08-20T18:25:21.647Z,67.90
2018-08-20T18:27:52.273Z,67.50
2018-08-20T18:30:26.475Z,66.70
2018-08-20T18:32:56.666Z,67.70
2018-08-20T18:35:32.779Z,67.10
2018-08-20T18:38:02.507Z,65.70
2018-08-20T18:40:31.722Z,66.30
2018-08-20T18:43:00.885Z,66.20
2018-08-20T18:45:30.859Z,66.40
2018-08-20T18:48:00.275Z,66.90
2018-08-20T18:50:31.805Z,67.20
2018-08-20T18:53:05.264Z,67.70
2018-08-20T18:55:44.427Z,67.90
2018-08-20T18:58:13.406Z,67.90
2018-08-20T19:00:42.372Z,68.60
2018-08-20T19:03:11.198Z,68.60
2018-08-20T19:05:50.845Z,69.00
2018-08-20T19:08:29.206Z,69.40
2018-08-20T19:10:59.404Z,69.50
2018-08-20T19:13:30.611Z,70.10
2018-08-20T19:16:00.800Z,70.20
2018-08-20T19:18:37.944Z,70.40
2018-08-20T19:21:12.498Z,70.60
2018-08-20T19:23:42.207Z,71.00
2018-08-20T19:26:11.002Z,71.30
2018-08-20T19:28:39.905Z,71.60
2018-08-20T19:31:08.811Z,71.80
2018-08-20T19:33:37.525Z,72.00
2018-08-20T19:36:06.163Z,72.60
2018-08-20T19:38:35.443Z,72.60
2018-08-20T19:41:12.672Z,72.80
2018-08-20T19:43:46.689Z,72.60
2018-08-20T19:46:38.626Z,73.10
2018-08-20T19:49:09.639Z,73.30
2018-08-20T19:51:40.483Z,73.20
2018-08-20T19:54:11.636Z,73.40
2018-08-20T19:56:40.761Z,73.60
2018-08-20T19:59:10.229Z,73.80
2018-08-20T20:01:39.101Z,74.00
2018-08-20T20:04:11.423Z,74.40
2018-08-20T20:06:40.395Z,74.70
2018-08-20T20:09:10.478Z,74.90
2018-08-20T20:11:43.003Z,75.30
2018-08-20T20:14:12.167Z,75.40
2018-08-20T20:16:47.735Z,75.80
2018-08-20T20:19:16.421Z,76.00
2018-08-20T20:21:45.762Z,76.80
2018-08-20T20:24:14.526Z,76.50
2018-08-20T20:26:43.246Z,76.60
2018-08-20T20:29:12.165Z,76.90
2018-08-20T20:31:41.924Z,76.90
2018-08-20T20:34:10.636Z,77.30
2018-08-20T20:36:39.228Z,77.60
2018-08-20T20:39:09.437Z,77.60
2018-08-20T20:41:38.155Z,77.90
2018-08-20T20:44:07.015Z,78.10
2018-08-20T20:46:35.662Z,78.00
2018-08-20T20:49:04.557Z,78.10
2018-08-20T20:51:33.092Z,78.30
2018-08-20T20:54:01.721Z,78.70
2018-08-20T20:56:30.491Z,79.00
2018-08-20T20:58:59.233Z,79.10
2018-08-20T21:01:27.794Z,79.30
2018-08-20T21:03:56.566Z,79.30
2018-08-20T21:06:25.152Z,79.70
2018-08-20T21:08:53.774Z,79.70
2018-08-20T21:11:23.086Z,80.20
2018-08-20T21:13:51.668Z,80.50
2018-08-20T21:16:24.695Z,81.20
2018-08-20T21:18:57.121Z,80.60
2018-08-20T21:21:26.489Z,80.90
2018-08-20T21:23:56.634Z,81.00
2018-08-20T21:26:25.181Z,81.30
2018-08-20T21:28:54.381Z,81.60
2018-08-20T21:31:24.136Z,81.70
2018-08-20T21:33:55.227Z,82.00
2018-08-20T21:36:23.930Z,82.10
2018-08-20T21:38:52.479Z,82.50
2018-08-20T21:41:23.781Z,82.70
2018-08-20T21:43:52.702Z,82.90
2018-08-20T21:46:21.476Z,83.20
2018-08-20T21:48:50.050Z,83.30
2018-08-20T21:51:23.356Z,83.40
2018-08-20T21:53:51.858Z,83.80
2018-08-20T21:56:20.341Z,84.10
2018-08-20T21:58:53.373Z,84.60
2018-08-20T22:01:22.523Z,84.70
2018-08-20T22:03:51.306Z,84.70
2018-08-20T22:06:19.821Z,84.80
2018-08-20T22:08:48.309Z,84.80
2018-08-20T22:11:16.788Z,84.80
2018-08-20T22:13:45.224Z,85.10
2018-08-20T22:16:22.418Z,85.20
2018-08-20T22:18:54.827Z,85.40
2018-08-20T22:21:23.345Z,85.50
2018-08-20T22:23:52.001Z,85.60
2018-08-20T22:26:21.409Z,86.40
2018-08-20T22:28:51.646Z,85.90
2018-08-20T22:31:20.429Z,86.00
2018-08-20T22:33:57.246Z,86.00
2018-08-20T22:36:26.502Z,86.30
2018-08-20T22:38:56.592Z,86.20
2018-08-20T22:41:26.188Z,86.50
2018-08-20T22:43:54.790Z,86.40
2018-08-20T22:46:24.072Z,86.70
2018-08-20T22:48:54.117Z,86.70
2018-08-20T22:51:24.346Z,86.70
2018-08-20T22:53:58.652Z,86.70
2018-08-20T22:56:34.715Z,86.60
2018-08-20T22:59:07.336Z,86.40
2018-08-20T23:01:35.849Z,86.50
2018-08-20T23:04:04.959Z,86.80
2018-08-20T23:06:33.990Z,87.00
2018-08-20T23:09:19.280Z,87.20
2018-08-20T23:11:48.095Z,87.30
2018-08-20T23:14:16.572Z,87.30
2018-08-20T23:16:47.957Z,87.40
2018-08-20T23:19:17.090Z,87.70
2018-08-20T23:21:46.449Z,87.80
2018-08-20T23:24:16.153Z,88.00
2018-08-20T23:26:44.757Z,88.10
2018-08-20T23:29:13.231Z,88.10
2018-08-20T23:31:42.098Z,88.20
2018-08-20T23:34:14.219Z,88.40
2018-08-20T23:36:42.968Z,88.40
2018-08-20T23:39:13.185Z,88.50
2018-08-20T23:41:42.009Z,88.50
2018-08-20T23:44:10.715Z,88.50
2018-08-20T23:46:40.567Z,88.70
2018-08-20T23:49:09.033Z,88.70
2018-08-20T23:51:37.926Z,88.70
2018-08-20T23:54:06.489Z,88.80
2018-08-20T23:56:35.037Z,89.00
2018-08-20T23:59:03.540Z,89.00
